• Join FlightAware (Why Join?)
  • Login
  • US Flag 
10:30PM EDT


 

Airport Tracker/Info


-or-


 

Live Flight TrackerFlight Track Log ✈ UAL4422 ✈ 12-Apr-2013 ✈ KMAF - KIAH

Flight Track Log - Related Links

Times and Time Zones

All times are in EDT time to prevent confusion due to time zone crossing. See the UAL4422 flight status page for this flight to view local times or setup timezone preferences in your user account.

Time Position Orientation Groundspeed Altitude Reporting Facility
EDT Latitude Longitude Course Direction KTS MPH feet Rate Location/Type
06:22PM 31.8475 -101.9091 111° Southeast  Level FlightAware Approximate
06:23PM 31.8154 -101.8132 113° Southeast  Level FlightAware Approximate
06:23PM 31.8414 -101.9469 107° East 279 321 10,100  Level Fort Worth Center
06:24PM 31.7810 -101.7185 113° Southeast  Level FlightAware Approximate
06:24PM 31.8153 -101.8578 109° East 279 321 11,500  Level Fort Worth Center
06:25PM 31.7475 -101.6235 106° East  Level FlightAware Approximate
06:25PM 31.7814 -101.7533 111° Southeast 309 356 12,200  Level Fort Worth Center
06:26PM 31.7229 -101.5247 106° East  Level FlightAware Approximate
06:26PM 31.7478 -101.6394 109° East 342 394 13,200  Level Fort Worth Center
06:27PM 31.6949 -101.4273 109° East  Level FlightAware Approximate
06:27PM 31.7119 -101.5231 110° East 370 426 14,500  Level Fort Worth Center
06:28PM 31.6739 -101.4042 111° Southeast 381 438 15,800 1,260 Climbing Fort Worth Center
06:29PM 31.6358 -101.2831 110° East 381 438 17,100 1,320 Climbing Fort Worth Center
06:30PM 31.5978 -101.1619 110° East 387 445 18,500 1,320 Climbing Fort Worth Center
06:31PM 31.5597 -101.0386 110° East 393 452 19,800 1,260 Climbing Fort Worth Center
06:32PM 31.5217 -100.9128 110° East 403 464 21,100 1,260 Climbing Fort Worth Center
06:33PM 31.4811 -100.7869 111° Southeast 408 470 22,400 720 Climbing Fort Worth Center
06:34PM 31.4114 -100.5686 110° East 443 510 23,000 180 Climbing Houston Center
06:35PM 31.3653 -100.4244 111° Southeast 470 541 23,000  Level Houston Center
06:36PM 31.3156 -100.2786 112° Southeast 480 552 23,000  Level Houston Center
06:38PM 31.2647 -100.1303 112° Southeast 488 562 23,000  Level Houston Center
06:39PM 31.2153 -99.9836 111° Southeast 486 559 23,000  Level Houston Center
06:40PM 31.1561 -99.8075 111° Southeast 486 559 23,000  Level Houston Center
06:41PM 31.1389 -99.6514 97° East 485 558 23,000  Level Houston Center
06:42PM 31.1278 -99.4942 95° East 485 558 23,000  Level Houston Center
06:43PM 31.1142 -99.3344 96° East 492 566 23,000  Level Houston Center
06:44PM 31.1003 -99.1769 96° East 489 563 23,000  Level Houston Center
06:45PM 31.0847 -98.9989 96° East 479 551 23,000  Level Houston Center
06:46PM 31.0714 -98.8447 96° East 475 547 23,000  Level Houston Center
06:47PM 31.0592 -98.6917 95° East 471 542 23,000  Level Houston Center
06:48PM 31.0464 -98.5383 96° East 470 541 23,000  Level Houston Center
06:49PM 31.0319 -98.3858 96° East 470 541 23,000  Level Houston Center
06:50PM 31.0197 -98.2333 95° East 469 540 23,000  Level Houston Center
06:51PM 31.0058 -98.0814 96° East 469 540 23,000  Level Houston Center
06:52PM 30.9894 -97.9033 96° East 469 540 23,000  Level Houston Center
06:53PM 30.9750 -97.7508 96° East 470 541 23,000  Level Houston Center
06:54PM 30.9608 -97.5983 96° East 469 540 23,000  Level Houston Center
06:55PM 30.9461 -97.4469 96° East 469 540 23,000  Level Houston Center
06:56PM 30.9308 -97.2975 97° East 465 535 23,000  Level Houston Center
06:57PM 30.9164 -97.1272 96° East 476 548 23,000  Level Houston Center
06:58PM 30.9350 -96.9792 82° East 476 548 23,000 -420 Level Houston Center
06:59PM 30.9608 -96.8386 78° East 448 516 22,200 -960 Descending Houston Center
07:00PM 30.9886 -96.6953 77° East 448 516 21,000 -1,140 Descending Houston Center
07:01PM 31.0133 -96.5581 78° East 427 491 19,900 -1,260 Descending Houston Center
07:02PM 31.0422 -96.4025 78° East 417 480 18,400 -1,260 Descending Houston Center
07:03PM 31.0358 -96.2733 93° East 410 472 17,300 -720 Descending Houston Center
07:04PM 30.9514 -96.2006 144° Southeast 377 434 17,000 -180 Descending Houston Center
07:05PM 30.8614 -96.1397 150° Southeast 369 425 17,000 -720 Level Houston Center
07:07PM 30.7725 -96.0783 149° Southeast 367 422 15,600 -1,500 Descending Houston Center
07:08PM 30.6714 -96.0111 150° Southeast 370 426 13,900 -1,740 Descending Houston Center
07:08PM 30.5958 -95.9603 150° Southeast 364 419 12,400 -1,800 Descending Houston Center
07:09PM 30.5114 -95.9047 150° Southeast 329 379 10,500 -1,200 Descending Houston Center
07:10PM 30.4417 -95.8522 147° Southeast 303 349 10,000 -660 Descending Houston Center
07:11PM 30.3664 -95.8053 152° Southeast 296 341 9,200 -1,020 Descending Houston Center
07:13PM 30.2872 -95.8122 184° South 272 313 8,000 -600 Descending Houston Center
07:14PM 30.2186 -95.8200 186° South 252 290 8,000  Level Houston Center
07:15PM 30.1375 -95.8294 186° South 269 310 8,000 -60 Level Houston Center
07:16PM 30.0786 -95.7783 143° Southeast 275 316 7,900 -240 Descending Houston Center
07:16PM 30.0711 -95.7714 141° Southeast 273 314 7,700 -1,500 Descending Houston Center
07:17PM 30.0231 -95.7197 137° Southeast 270 311 6,400 -1,560 Descending Houston Center
07:17PM 30.0161 -95.7114 134° Southeast 272 313 6,100 -1,500 Descending Houston Center
07:18PM 29.9892 -95.6467 116° Southeast 252 290 4,900 -1,380 Descending Houston Center
07:18PM 29.9917 -95.6256 82° East 259 298 4,700 -840 Descending Houston Center
07:19PM 29.9925 -95.5667 89° East 242 278 4,100 -1,020 Descending Houston Center
07:19PM 29.9942 -95.5467 84° East 250 288 3,700 -1,140 Descending Houston Center
07:20PM 29.9928 -95.5014 92° East 188 216 3,000 -960 Descending Houston Center
07:20PM 29.9936 -95.4850 87° East 219 252 2,700 -960 Descending Houston Center